createdAt,value
2019-03-18T00:02:18.090Z,5.90
2019-03-18T00:07:22.398Z,5.90
2019-03-18T00:12:26.578Z,5.90
2019-03-18T00:17:30.858Z,5.70
2019-03-18T00:22:35.021Z,5.80
2019-03-18T00:27:39.269Z,5.70
2019-03-18T00:32:43.469Z,5.70
2019-03-18T00:37:47.715Z,5.70
2019-03-18T00:42:51.936Z,5.70
2019-03-18T00:47:56.124Z,5.60
2019-03-18T00:53:00.294Z,5.70
2019-03-18T00:58:04.459Z,5.60
2019-03-18T01:03:08.649Z,5.50
2019-03-18T01:08:12.813Z,5.60
2019-03-18T01:13:17.083Z,5.50
2019-03-18T01:18:21.240Z,5.60
2019-03-18T01:23:25.415Z,5.50
2019-03-18T01:28:29.603Z,5.40
2019-03-18T01:33:33.784Z,5.60
2019-03-18T01:38:38.053Z,5.60
2019-03-18T01:43:42.302Z,5.70
2019-03-18T01:48:46.499Z,5.60
2019-03-18T01:53:50.679Z,5.70
2019-03-18T01:58:54.879Z,5.60
2019-03-18T02:03:59.112Z,5.20
2019-03-18T02:09:03.813Z,5.50
2019-03-18T02:14:08.060Z,5.70
2019-03-18T02:19:12.248Z,5.70
2019-03-18T02:24:16.445Z,5.70
2019-03-18T02:29:21.053Z,5.70
2019-03-18T02:34:25.245Z,5.80
2019-03-18T02:39:29.433Z,5.90
2019-03-18T02:44:33.637Z,5.80
2019-03-18T02:49:37.880Z,5.90
2019-03-18T02:54:42.064Z,5.90
2019-03-18T02:59:46.248Z,5.90
2019-03-18T03:04:50.445Z,6.10
2019-03-18T03:09:54.641Z,6.10
2019-03-18T03:14:58.892Z,5.80
2019-03-18T03:20:03.068Z,5.90
2019-03-18T03:25:07.281Z,6.00
2019-03-18T03:30:11.628Z,6.00
2019-03-18T03:35:15.988Z,6.00
2019-03-18T03:40:20.181Z,6.10
2019-03-18T03:45:24.412Z,6.00
2019-03-18T03:50:28.663Z,6.10
2019-03-18T03:55:32.874Z,6.20
2019-03-18T04:00:37.062Z,6.10
2019-03-18T04:05:41.297Z,6.10
2019-03-18T04:10:45.462Z,5.90
2019-03-18T04:15:49.680Z,6.00
2019-03-18T04:20:54.007Z,6.00
2019-03-18T04:25:58.260Z,5.90
2019-03-18T04:31:02.485Z,6.10
2019-03-18T04:36:06.631Z,5.90
2019-03-18T04:41:10.791Z,6.00
2019-03-18T04:46:14.956Z,5.80
2019-03-18T04:51:19.232Z,5.90
2019-03-18T04:56:23.454Z,5.80
2019-03-18T05:01:27.812Z,5.80
2019-03-18T05:06:32.032Z,5.90
2019-03-18T05:11:36.210Z,6.00
2019-03-18T05:16:40.380Z,5.80
2019-03-18T05:21:44.532Z,5.90
2019-03-18T05:26:48.715Z,5.90
2019-03-18T05:31:52.970Z,5.80
2019-03-18T05:36:57.159Z,5.80
2019-03-18T05:42:01.393Z,5.70
2019-03-18T05:47:05.564Z,5.80
2019-03-18T05:52:09.775Z,5.80
2019-03-18T05:57:13.975Z,5.80
2019-03-18T06:02:18.137Z,6.00
2019-03-18T06:07:22.460Z,6.20
2019-03-18T06:12:26.637Z,6.20
2019-03-18T06:17:30.848Z,6.40
2019-03-18T06:22:35.038Z,6.50
2019-03-18T06:27:39.294Z,6.30
2019-03-18T06:32:43.489Z,6.50
2019-03-18T06:37:47.683Z,6.80
2019-03-18T06:42:51.847Z,6.80
2019-03-18T06:48:04.755Z,7.00
2019-03-18T06:53:01.914Z,7.40
2019-03-18T06:58:06.100Z,7.50
2019-03-18T07:08:14.315Z,8.70
2019-03-18T07:13:18.506Z,10.00
2019-03-18T07:18:22.728Z,9.80
2019-03-18T07:23:27.137Z,8.80
2019-03-18T07:28:31.315Z,8.20
2019-03-18T07:33:35.520Z,8.10
2019-03-18T07:38:39.698Z,7.90
2019-03-18T07:43:43.878Z,8.00
2019-03-18T07:48:48.067Z,8.10
2019-03-18T07:58:56.005Z,11.40
2019-03-18T08:04:00.267Z,11.30
2019-03-18T08:09:06.793Z,11.10
2019-03-18T08:14:11.040Z,12.50
2019-03-18T08:19:15.234Z,12.90
2019-03-18T08:24:19.491Z,11.30
2019-03-18T08:29:23.719Z,11.80
2019-03-18T08:34:27.921Z,11.70
2019-03-18T08:39:32.220Z,10.70
2019-03-18T08:44:36.436Z,10.70
2019-03-18T08:49:40.638Z,9.70
2019-03-18T08:54:44.835Z,9.30
2019-03-18T08:59:49.008Z,8.90
2019-03-18T09:04:53.205Z,8.80
2019-03-18T09:09:57.392Z,9.00
2019-03-18T09:15:01.620Z,11.00
2019-03-18T09:20:07.297Z,12.00
2019-03-18T09:25:11.727Z,12.70
2019-03-18T09:30:16.102Z,13.50
2019-03-18T09:35:20.319Z,11.50
2019-03-18T09:50:31.912Z,11.90
2019-03-18T09:55:36.103Z,10.80
2019-03-18T10:00:40.394Z,12.10
2019-03-18T10:05:44.588Z,14.50
2019-03-18T10:10:48.821Z,15.70
2019-03-18T10:15:53.089Z,16.60
2019-03-18T10:36:08.392Z,16.40
2019-03-18T10:41:12.609Z,15.30
2019-03-18T10:46:16.826Z,15.00
2019-03-18T10:51:21.297Z,14.80
2019-03-18T10:56:25.553Z,9.80
2019-03-18T11:01:29.913Z,8.40
2019-03-18T11:06:34.271Z,7.40
2019-03-18T11:11:38.535Z,6.80
2019-03-18T11:16:42.713Z,7.00
2019-03-18T11:21:46.902Z,7.70
2019-03-18T11:26:51.161Z,8.20
2019-03-18T11:31:55.624Z,7.70
2019-03-18T11:36:59.959Z,7.40
2019-03-18T11:42:04.168Z,8.50
2019-03-18T11:47:08.361Z,11.40
2019-03-18T11:52:12.639Z,11.70
2019-03-18T11:57:16.845Z,10.30
2019-03-18T12:02:27.537Z,8.50
2019-03-18T12:07:27.015Z,8.30
2019-03-18T12:12:31.206Z,7.90
2019-03-18T12:17:35.445Z,8.40
2019-03-18T12:27:43.381Z,10.80
2019-03-18T12:32:47.778Z,13.40
2019-03-18T12:37:52.064Z,14.80
2019-03-18T12:42:56.398Z,16.50
2019-03-18T12:58:08.300Z,16.70
2019-03-18T13:03:12.601Z,15.90
2019-03-18T13:08:16.830Z,14.60
2019-03-18T13:13:21.023Z,13.10
2019-03-18T13:18:25.303Z,11.00
2019-03-18T13:23:29.495Z,9.30
2019-03-18T13:28:33.682Z,8.80
2019-03-18T13:33:37.876Z,8.30
2019-03-18T13:38:42.286Z,10.50
2019-03-18T13:43:46.487Z,14.30
2019-03-18T13:48:50.661Z,14.70
2019-03-18T13:53:54.862Z,15.80
2019-03-18T14:04:02.830Z,19.10
2019-03-18T14:09:08.445Z,19.00
2019-03-18T14:14:12.716Z,18.50
2019-03-18T14:19:16.888Z,17.20
2019-03-18T14:24:21.177Z,17.00
2019-03-18T14:34:29.119Z,17.60
2019-03-18T14:39:33.346Z,17.60
2019-03-18T14:44:37.529Z,18.90
2019-03-18T14:49:41.840Z,18.30
2019-03-18T14:54:46.068Z,19.00
2019-03-18T14:59:50.316Z,18.70
2019-03-18T15:09:58.231Z,16.20
2019-03-18T15:15:02.445Z,14.50
2019-03-18T15:20:07.104Z,11.50
2019-03-18T15:25:14.905Z,9.40
2019-03-18T15:30:19.854Z,8.40
2019-03-18T15:35:24.098Z,8.40
2019-03-18T15:40:28.407Z,9.50
2019-03-18T15:45:32.682Z,9.60
2019-03-18T15:50:36.964Z,9.60
2019-03-18T15:55:41.130Z,9.40
2019-03-18T16:00:45.336Z,9.40
2019-03-18T16:05:49.650Z,8.90
2019-03-18T16:10:53.950Z,8.50
2019-03-18T16:15:58.184Z,8.00
2019-03-18T16:21:02.388Z,7.70
2019-03-18T16:26:06.653Z,7.30
2019-03-18T16:31:10.889Z,7.30
2019-03-18T16:36:15.080Z,7.70
2019-03-18T16:41:19.304Z,7.90
2019-03-18T16:46:23.517Z,8.00
2019-03-18T16:51:27.732Z,7.80
2019-03-18T16:56:31.932Z,7.70
2019-03-18T17:01:36.222Z,7.50
2019-03-18T17:06:40.418Z,7.40
2019-03-18T17:11:44.644Z,7.40
2019-03-18T17:16:48.835Z,7.40
2019-03-18T17:21:53.126Z,7.20
2019-03-18T17:26:58.402Z,7.00
2019-03-18T17:32:02.699Z,7.20
2019-03-18T17:37:06.930Z,7.30
2019-03-18T17:42:11.132Z,7.20
2019-03-18T17:47:15.428Z,7.10
2019-03-18T17:52:19.640Z,7.00
2019-03-18T17:57:23.864Z,6.90
2019-03-18T18:02:28.062Z,6.90
2019-03-18T18:07:32.256Z,6.90
2019-03-18T18:12:36.470Z,6.90
2019-03-18T18:17:40.662Z,7.00
2019-03-18T18:22:44.896Z,7.00
2019-03-18T18:27:49.185Z,6.80
2019-03-18T18:32:53.393Z,6.90
2019-03-18T18:37:57.583Z,6.90
2019-03-18T18:43:01.777Z,6.70
2019-03-18T18:48:06.007Z,6.70
2019-03-18T18:53:10.295Z,6.80
2019-03-18T18:58:14.556Z,6.70
2019-03-18T19:03:18.751Z,6.80
2019-03-18T19:08:23.002Z,6.90
2019-03-18T19:13:27.342Z,6.80
